createdAt,value
2018-07-11T00:01:27.859Z,10.63
2018-07-11T00:03:56.410Z,10.37
2018-07-11T00:06:26.228Z,10.43
2018-07-11T00:08:54.794Z,10.47
2018-07-11T00:11:23.342Z,9.67
2018-07-11T00:13:51.841Z,10.90
2018-07-11T00:16:20.349Z,11.60
2018-07-11T00:18:48.902Z,10.80
2018-07-11T00:21:17.450Z,10.20
2018-07-11T00:23:45.988Z,10.20
2018-07-11T00:26:14.550Z,10.30
2018-07-11T00:28:43.061Z,11.67
2018-07-11T00:31:11.637Z,13.40
2018-07-11T00:33:40.135Z,13.57
2018-07-11T00:36:08.697Z,15.03
2018-07-11T00:38:37.258Z,21.30
2018-07-11T00:41:06.609Z,18.90
2018-07-11T00:43:35.579Z,15.30
2018-07-11T00:46:05.124Z,20.07
2018-07-11T00:48:33.869Z,16.60
2018-07-11T00:51:03.115Z,25.43
2018-07-11T00:53:32.930Z,15.83
2018-07-11T00:56:02.282Z,15.47
2018-07-11T00:58:33.251Z,14.33
2018-07-11T01:01:09.819Z,16.97
2018-07-11T01:03:41.557Z,20.83
2018-07-11T01:06:10.534Z,23.27
2018-07-11T01:08:41.183Z,22.10
2018-07-11T01:11:15.796Z,20.43
2018-07-11T01:13:45.634Z,21.30
2018-07-11T01:16:15.418Z,25.27
2018-07-11T01:18:47.507Z,14.83
2018-07-11T01:21:16.046Z,18.57
2018-07-11T01:23:44.496Z,17.10
2018-07-11T01:26:13.549Z,17.13
2018-07-11T01:28:42.054Z,19.53
2018-07-11T01:31:10.545Z,20.97
2018-07-11T01:33:39.033Z,19.30
2018-07-11T01:36:07.522Z,17.90
2018-07-11T01:38:36.022Z,19.30
2018-07-11T01:41:04.564Z,21.57
2018-07-11T01:43:33.097Z,16.87
2018-07-11T01:46:01.628Z,19.43
2018-07-11T01:48:30.173Z,18.30
2018-07-11T01:50:58.717Z,39.37
2018-07-11T01:53:27.234Z,18.63
2018-07-11T01:55:55.809Z,27.57
2018-07-11T01:58:24.392Z,31.03
2018-07-11T02:00:52.965Z,22.90
2018-07-11T02:03:21.499Z,26.97
2018-07-11T02:05:50.390Z,20.40
2018-07-11T02:08:18.941Z,38.20
2018-07-11T02:10:48.066Z,35.30
2018-07-11T02:13:16.609Z,19.97
2018-07-11T02:15:47.148Z,29.00
2018-07-11T02:18:17.676Z,24.60
2018-07-11T02:20:46.866Z,24.83
2018-07-11T02:23:16.111Z,24.03
2018-07-11T02:25:44.660Z,25.67
2018-07-11T02:28:13.282Z,29.17
2018-07-11T02:30:41.958Z,22.23
2018-07-11T02:33:10.513Z,21.17
2018-07-11T02:35:39.070Z,19.67
2018-07-11T02:38:07.625Z,24.57
2018-07-11T02:40:36.110Z,23.83
2018-07-11T02:43:04.677Z,26.47
2018-07-11T02:45:33.246Z,21.13
2018-07-11T02:48:01.835Z,20.87
2018-07-11T02:50:30.370Z,20.60
2018-07-11T02:52:58.957Z,21.50
2018-07-11T02:55:27.461Z,20.53
2018-07-11T02:57:56.014Z,19.37
2018-07-11T03:00:24.503Z,20.20
2018-07-11T03:02:53.005Z,19.50
2018-07-11T03:05:21.537Z,19.57
2018-07-11T03:07:50.142Z,20.80
2018-07-11T03:10:18.617Z,19.20
2018-07-11T03:12:47.197Z,21.70
2018-07-11T03:15:15.741Z,21.50
2018-07-11T03:17:44.273Z,22.10
2018-07-11T03:20:12.743Z,19.30
2018-07-11T03:22:41.253Z,21.20
2018-07-11T03:25:09.797Z,19.80
2018-07-11T03:27:38.377Z,19.50
2018-07-11T03:30:06.887Z,19.77
2018-07-11T03:32:35.425Z,19.37
2018-07-11T03:35:03.892Z,20.70
2018-07-11T03:37:32.472Z,18.97
2018-07-11T03:40:01.015Z,21.17
2018-07-11T03:42:29.546Z,18.93
2018-07-11T03:44:58.077Z,19.17
2018-07-11T03:47:26.606Z,19.80
2018-07-11T03:49:55.068Z,18.27
2018-07-11T03:52:23.625Z,17.90
2018-07-11T03:54:52.081Z,18.00
2018-07-11T03:57:20.586Z,17.80
2018-07-11T03:59:49.055Z,21.93
2018-07-11T04:02:17.625Z,16.93
2018-07-11T04:04:46.162Z,16.00
2018-07-11T04:07:14.614Z,15.70
2018-07-11T04:09:43.077Z,18.50
2018-07-11T04:12:11.589Z,18.43
2018-07-11T04:14:40.064Z,17.53
2018-07-11T04:17:08.607Z,14.87
2018-07-11T04:19:37.094Z,15.77
2018-07-11T04:22:06.414Z,16.50
2018-07-11T04:24:35.001Z,18.90
2018-07-11T04:27:03.781Z,17.43
2018-07-11T04:29:32.413Z,18.03
2018-07-11T04:32:00.951Z,19.50
2018-07-11T04:34:29.659Z,20.37
2018-07-11T04:36:58.357Z,24.33
2018-07-11T04:39:27.018Z,20.47
2018-07-11T04:41:55.800Z,19.83
2018-07-11T04:44:24.435Z,19.53
2018-07-11T04:46:53.224Z,19.33
2018-07-11T04:49:21.830Z,17.73
2018-07-11T04:51:56.448Z,17.83
2018-07-11T04:54:25.078Z,17.90
2018-07-11T04:56:53.970Z,26.83
2018-07-11T04:59:22.503Z,24.23
2018-07-11T05:01:51.293Z,26.43
2018-07-11T05:04:20.662Z,24.23
2018-07-11T05:06:49.177Z,29.57
2018-07-11T05:09:17.728Z,43.17
2018-07-11T05:11:46.278Z,21.63
2018-07-11T05:14:14.806Z,20.40
2018-07-11T05:16:43.341Z,20.03
2018-07-11T05:19:11.853Z,20.20
2018-07-11T05:21:40.317Z,30.73
2018-07-11T05:24:08.816Z,23.13
2018-07-11T05:26:37.277Z,34.67
2018-07-11T05:29:05.793Z,22.17
2018-07-11T05:31:34.257Z,34.10
2018-07-11T05:34:02.739Z,28.27
2018-07-11T05:36:31.242Z,23.53
2018-07-11T05:38:59.739Z,21.90
2018-07-11T05:41:28.330Z,24.33
2018-07-11T05:43:57.145Z,21.27
2018-07-11T05:46:25.630Z,24.33
2018-07-11T05:48:54.169Z,23.67
2018-07-11T05:51:22.663Z,22.60
2018-07-11T05:53:51.200Z,22.93
2018-07-11T05:56:19.674Z,21.33
2018-07-11T05:58:48.396Z,22.27
2018-07-11T06:01:16.884Z,20.40
2018-07-11T06:03:45.439Z,21.07
2018-07-11T06:06:13.934Z,20.00
2018-07-11T06:08:42.457Z,20.00
2018-07-11T06:11:19.237Z,20.73
2018-07-11T06:13:47.773Z,20.53
2018-07-11T06:16:16.308Z,20.40
2018-07-11T06:18:44.813Z,21.47
2018-07-11T06:21:13.362Z,18.73
2018-07-11T06:23:42.080Z,18.77
2018-07-11T06:26:10.611Z,19.83
2018-07-11T06:28:39.130Z,18.60
2018-07-11T06:31:07.697Z,18.27
2018-07-11T06:33:36.358Z,19.10
2018-07-11T06:36:04.945Z,18.57
2018-07-11T06:38:33.472Z,19.57
2018-07-11T06:41:02.161Z,20.37
2018-07-11T06:43:30.655Z,18.80
2018-07-11T06:45:59.181Z,22.37
2018-07-11T06:48:27.825Z,23.53
2018-07-11T06:50:56.612Z,23.97
2018-07-11T06:53:25.119Z,22.17
2018-07-11T06:55:53.655Z,23.53
2018-07-11T06:58:22.861Z,24.07
2018-07-11T07:00:51.385Z,27.47
2018-07-11T07:03:19.922Z,24.13
2018-07-11T07:05:49.021Z,24.70
2018-07-11T07:08:17.529Z,24.60
2018-07-11T07:10:46.029Z,23.57
2018-07-11T07:13:14.496Z,24.60
2018-07-11T07:15:42.981Z,25.03
2018-07-11T07:18:11.843Z,24.00
2018-07-11T07:20:40.377Z,25.43
2018-07-11T07:23:08.864Z,22.07
2018-07-11T07:25:37.373Z,21.23
2018-07-11T07:28:05.919Z,22.33
2018-07-11T07:30:34.429Z,23.73
2018-07-11T07:33:02.931Z,23.47
2018-07-11T07:35:31.454Z,21.50
2018-07-11T07:37:59.950Z,22.80
2018-07-11T07:40:28.459Z,23.30
2018-07-11T07:42:57.013Z,24.57
2018-07-11T07:45:25.857Z,24.37
2018-07-11T07:47:54.413Z,23.70
2018-07-11T07:50:23.018Z,22.03
2018-07-11T07:52:51.745Z,22.90
2018-07-11T07:55:20.391Z,24.33
2018-07-11T07:57:49.086Z,22.60
2018-07-11T08:00:17.670Z,23.33
2018-07-11T08:02:46.214Z,21.43
2018-07-11T08:05:14.809Z,21.47
2018-07-11T08:07:43.301Z,20.87
2018-07-11T08:10:11.989Z,20.23
2018-07-11T08:12:42.342Z,20.00
2018-07-11T08:15:10.870Z,18.85
2018-07-11T08:17:40.057Z,16.65
2018-07-11T08:20:08.602Z,16.37
2018-07-11T08:23:18.706Z,14.63
2018-07-11T08:25:59.701Z,14.45
2018-07-11T08:29:43.933Z,13.35
2018-07-11T08:34:32.428Z,12.20
2018-07-11T08:37:10.625Z,11.55
2018-07-11T08:41:54.469Z,10.75
2018-07-11T08:46:38.237Z,9.60
2018-07-11T08:51:20.546Z,10.72
2018-07-11T08:54:04.377Z,11.00
2018-07-11T08:57:13.449Z,11.15
2018-07-11T09:01:58.048Z,10.25
2018-07-11T09:05:44.395Z,10.03
2018-07-11T09:08:24.026Z,13.50
2018-07-11T09:13:06.428Z,10.90
2018-07-11T09:15:55.247Z,7.40
2018-07-11T09:18:36.853Z,8.85
2018-07-11T09:21:17.048Z,6.30
2018-07-11T09:23:56.575Z,4.85
2018-07-11T09:26:26.127Z,15.53
2018-07-11T09:28:54.731Z,6.30
2018-07-11T09:31:23.435Z,4.77
2018-07-11T09:33:51.986Z,3.87
2018-07-11T09:36:20.577Z,4.30
2018-07-11T09:38:49.129Z,5.43
2018-07-11T09:42:46.796Z,5.37
2018-07-11T09:45:15.419Z,5.30
2018-07-11T09:47:44.003Z,4.87
2018-07-11T09:50:12.700Z,4.43
2018-07-11T09:52:41.374Z,4.53
2018-07-11T09:55:10.030Z,3.90
2018-07-11T09:57:39.954Z,3.10
2018-07-11T10:00:12.746Z,3.20
2018-07-11T10:02:41.814Z,3.33
2018-07-11T10:05:10.421Z,4.60
2018-07-11T10:07:39.027Z,3.60
2018-07-11T10:10:07.638Z,3.00
2018-07-11T10:12:36.253Z,3.27
2018-07-11T10:15:04.853Z,3.72
2018-07-11T10:17:34.090Z,3.45
2018-07-11T10:20:02.627Z,3.75
2018-07-11T10:22:31.207Z,3.92
2018-07-11T10:25:00.770Z,3.77
2018-07-11T10:27:29.282Z,4.13
2018-07-11T10:29:57.797Z,3.20
2018-07-11T10:32:26.446Z,3.87
2018-07-11T10:34:55.046Z,4.33
2018-07-11T10:37:23.640Z,5.60
2018-07-11T10:39:52.217Z,3.93
2018-07-11T10:42:22.226Z,3.50
2018-07-11T10:44:50.724Z,2.90
2018-07-11T10:48:43.728Z,2.40
2018-07-11T10:51:12.673Z,2.57
2018-07-11T10:53:41.341Z,3.63
2018-07-11T10:56:09.844Z,2.70
2018-07-11T10:58:39.337Z,3.50
2018-07-11T11:01:07.955Z,3.07
2018-07-11T11:03:36.478Z,4.70
2018-07-11T11:06:05.026Z,3.10
2018-07-11T11:08:33.521Z,3.30
2018-07-11T11:11:02.076Z,3.70
2018-07-11T11:13:30.737Z,3.60
2018-07-11T11:15:59.304Z,3.93
2018-07-11T11:18:27.949Z,3.10
2018-07-11T11:20:57.151Z,3.30
2018-07-11T11:23:25.667Z,3.17
2018-07-11T11:25:54.199Z,2.53
2018-07-11T11:28:22.670Z,3.20
2018-07-11T11:30:51.189Z,2.40
2018-07-11T11:33:19.697Z,2.90
2018-07-11T11:35:48.264Z,3.73
2018-07-11T11:38:16.749Z,3.43
2018-07-11T11:40:45.249Z,3.40
2018-07-11T11:43:13.794Z,3.23
2018-07-11T11:45:42.370Z,3.10
2018-07-11T11:48:11.032Z,3.70
2018-07-11T11:50:41.483Z,3.00
2018-07-11T11:53:10.010Z,3.23
2018-07-11T11:55:38.569Z,4.10
2018-07-11T11:58:07.515Z,4.40
2018-07-11T12:00:36.070Z,3.37
2018-07-11T12:03:05.583Z,3.00
2018-07-11T12:05:34.131Z,4.37
2018-07-11T12:08:02.650Z,3.40
2018-07-11T12:10:31.420Z,3.90
2018-07-11T12:13:01.517Z,4.83
2018-07-11T12:15:30.023Z,5.15
2018-07-11T12:17:58.498Z,5.53
2018-07-11T12:20:27.010Z,4.60
2018-07-11T12:22:55.643Z,4.87
2018-07-11T12:25:24.250Z,4.05
2018-07-11T12:27:52.827Z,4.40
2018-07-11T12:30:21.377Z,4.28
2018-07-11T12:32:49.931Z,4.37
2018-07-11T12:35:19.399Z,4.62
2018-07-11T12:37:47.925Z,4.70
2018-07-11T12:40:16.525Z,4.50
2018-07-11T12:42:45.136Z,4.10
2018-07-11T12:45:13.725Z,4.13
2018-07-11T12:47:50.134Z,3.90
2018-07-11T12:50:18.697Z,4.60
2018-07-11T12:52:48.237Z,4.40
2018-07-11T12:55:17.833Z,4.33
2018-07-11T12:57:46.455Z,4.00
2018-07-11T13:00:15.924Z,4.13
2018-07-11T13:02:45.192Z,3.73
2018-07-11T13:05:13.730Z,4.13
2018-07-11T13:07:42.341Z,4.27
2018-07-11T13:13:03.977Z,4.60
2018-07-11T13:15:32.542Z,4.00
2018-07-11T13:18:01.262Z,4.83
2018-07-11T13:20:29.742Z,4.23
2018-07-11T13:22:58.309Z,4.10
2018-07-11T13:25:26.976Z,4.60
2018-07-11T13:27:55.471Z,4.43
2018-07-11T13:30:24.503Z,4.70
2018-07-11T13:32:53.110Z,9.23
2018-07-11T13:35:21.592Z,8.47
2018-07-11T13:40:43.455Z,7.10
2018-07-11T13:43:12.597Z,6.93
2018-07-11T13:45:41.398Z,5.67
2018-07-11T13:48:09.942Z,4.90
2018-07-11T13:50:38.450Z,5.33
2018-07-11T13:53:07.025Z,5.10
2018-07-11T13:55:35.502Z,5.53
2018-07-11T13:58:04.058Z,5.43
2018-07-11T14:00:33.725Z,6.03
2018-07-11T14:03:02.839Z,5.03
2018-07-11T14:05:31.333Z,6.00
2018-07-11T14:07:59.901Z,4.70
2018-07-11T14:10:28.385Z,3.93
2018-07-11T14:12:56.958Z,5.37
2018-07-11T14:15:25.445Z,3.90
2018-07-11T14:17:53.993Z,4.50
2018-07-11T14:20:22.534Z,4.23
2018-07-11T14:22:51.014Z,4.70
2018-07-11T14:25:21.266Z,4.10
2018-07-11T14:27:50.924Z,4.33
2018-07-11T14:30:23.801Z,3.97
2018-07-11T14:32:55.458Z,5.77
2018-07-11T14:35:24.006Z,5.33
2018-07-11T14:37:52.502Z,4.40
2018-07-11T14:40:22.029Z,4.47
2018-07-11T14:42:50.585Z,4.63
2018-07-11T14:45:19.941Z,5.23
2018-07-11T14:47:53.889Z,5.67
2018-07-11T14:50:22.442Z,5.53
2018-07-11T14:52:51.281Z,5.77
2018-07-11T14:55:19.879Z,5.53
2018-07-11T14:57:49.066Z,5.63
2018-07-11T15:00:17.586Z,6.30
2018-07-11T15:02:46.161Z,5.30
2018-07-11T15:05:14.663Z,5.90
2018-07-11T15:07:43.335Z,5.57
2018-07-11T15:10:11.868Z,5.20
2018-07-11T15:12:40.443Z,5.57
2018-07-11T15:15:08.942Z,6.53
2018-07-11T15:17:37.548Z,4.87
2018-07-11T15:20:06.134Z,5.40
2018-07-11T15:22:34.702Z,4.80
2018-07-11T15:25:03.207Z,5.10
2018-07-11T15:27:31.765Z,6.03
2018-07-11T15:30:00.277Z,5.10
2018-07-11T15:32:28.918Z,5.30
2018-07-11T15:34:57.446Z,5.50
2018-07-11T15:37:26.011Z,5.20
2018-07-11T15:39:54.969Z,5.60
2018-07-11T15:42:23.519Z,6.53
2018-07-11T15:44:52.917Z,4.97
2018-07-11T15:47:22.411Z,5.97
2018-07-11T15:49:52.709Z,6.33
2018-07-11T15:52:22.942Z,5.60
2018-07-11T15:54:51.945Z,5.43
2018-07-11T15:57:33.822Z,5.40
2018-07-11T16:00:07.947Z,5.70
2018-07-11T16:02:41.071Z,6.50
2018-07-11T16:05:10.288Z,5.90
2018-07-11T16:07:41.778Z,5.77
2018-07-11T16:10:10.642Z,6.40
2018-07-11T16:12:39.161Z,6.40
2018-07-11T16:15:07.701Z,6.47
2018-07-11T16:17:36.170Z,5.70
2018-07-11T16:20:04.866Z,6.47
2018-07-11T16:22:33.761Z,7.17
2018-07-11T16:25:02.395Z,6.83
2018-07-11T16:27:30.932Z,8.73
2018-07-11T16:29:59.462Z,7.03
2018-07-11T16:32:27.973Z,6.00
2018-07-11T16:34:56.542Z,6.40
2018-07-11T16:37:25.139Z,6.93
2018-07-11T16:39:54.028Z,6.33
2018-07-11T16:42:22.497Z,6.10
2018-07-11T16:44:52.242Z,6.00
2018-07-11T16:47:20.829Z,6.10
2018-07-11T16:49:50.544Z,5.87
2018-07-11T16:52:19.119Z,5.50
2018-07-11T16:54:47.701Z,6.13
2018-07-11T16:57:22.120Z,6.40
2018-07-11T16:59:57.456Z,6.57
2018-07-11T17:02:27.158Z,6.33
2018-07-11T17:05:00.122Z,7.10
2018-07-11T17:07:28.686Z,8.07
2018-07-11T17:09:59.722Z,7.07
2018-07-11T17:12:28.526Z,7.53
2018-07-11T17:14:59.762Z,7.70
2018-07-11T17:17:34.921Z,8.03
2018-07-11T17:20:08.911Z,7.90
2018-07-11T17:22:49.945Z,7.40
2018-07-11T17:25:20.892Z,7.97
2018-07-11T17:27:57.194Z,8.47
2018-07-11T17:30:25.798Z,7.90
2018-07-11T17:32:55.419Z,8.13
2018-07-11T17:35:23.951Z,8.57
2018-07-11T17:37:52.594Z,8.13
2018-07-11T17:40:25.206Z,7.83
2018-07-11T17:42:55.346Z,7.93
2018-07-11T17:45:23.912Z,8.07
2018-07-11T17:47:57.445Z,7.70
2018-07-11T17:50:29.810Z,7.13
2018-07-11T17:53:08.902Z,7.87
2018-07-11T17:55:46.426Z,7.60
2018-07-11T17:58:14.965Z,7.63
2018-07-11T18:00:50.034Z,7.63
2018-07-11T18:03:27.446Z,7.13
2018-07-11T18:07:02.807Z,7.27
2018-07-11T18:09:44.036Z,6.33
2018-07-11T18:12:23.561Z,6.63
2018-07-11T18:15:02.342Z,6.97
2018-07-11T18:17:39.322Z,7.30
2018-07-11T18:20:16.909Z,7.27
2018-07-11T18:22:58.471Z,7.70
2018-07-11T18:26:37.873Z,7.53
2018-07-11T18:29:29.111Z,7.80
2018-07-11T18:32:38.551Z,7.90
2018-07-11T18:35:19.478Z,7.73
2018-07-11T18:37:57.233Z,7.70
2018-07-11T18:41:50.537Z,8.20
2018-07-11T18:44:25.912Z,7.97
2018-07-11T18:47:08.569Z,7.37
2018-07-11T18:49:52.201Z,8.07
2018-07-11T18:52:30.577Z,8.10
2018-07-11T18:55:08.346Z,7.73
2018-07-11T18:57:46.957Z,8.40
2018-07-11T19:01:52.258Z,8.00
2018-07-11T19:04:25.053Z,7.20
2018-07-11T19:07:11.716Z,7.83
2018-07-11T19:09:51.930Z,7.50
2018-07-11T19:12:30.394Z,7.20
2018-07-11T19:15:05.580Z,7.03
2018-07-11T19:18:05.968Z,6.90
2018-07-11T19:20:38.553Z,7.00
2018-07-11T19:23:33.465Z,6.83
2018-07-11T19:26:10.956Z,6.50
2018-07-11T19:29:48.756Z,5.80
2018-07-11T19:32:53.820Z,6.33
2018-07-11T19:35:32.914Z,6.37
2018-07-11T19:38:05.598Z,6.80
2018-07-11T19:40:47.416Z,6.50
2018-07-11T19:45:32.403Z,6.30
2018-07-11T19:48:17.817Z,6.80
2018-07-11T19:50:59.642Z,6.97
2018-07-11T19:54:36.046Z,5.57
2018-07-11T19:57:04.701Z,5.47
2018-07-11T19:59:33.276Z,5.27
2018-07-11T20:02:02.922Z,5.20
2018-07-11T20:04:31.437Z,4.57
2018-07-11T20:07:00.094Z,5.13
2018-07-11T20:09:28.690Z,4.80
2018-07-11T20:11:57.558Z,5.10
2018-07-11T20:14:26.182Z,5.50
2018-07-11T20:16:54.782Z,5.30
2018-07-11T20:19:23.705Z,5.77
2018-07-11T20:21:52.302Z,4.83
2018-07-11T20:24:20.837Z,5.77
2018-07-11T20:26:49.472Z,6.77
2018-07-11T20:29:18.074Z,6.43
2018-07-11T20:31:46.678Z,5.43
2018-07-11T20:34:15.357Z,6.60
2018-07-11T20:36:45.118Z,4.73
2018-07-11T20:39:13.735Z,5.97
2018-07-11T20:41:42.371Z,5.03
2018-07-11T20:44:11.010Z,4.87
2018-07-11T20:46:39.571Z,4.77
2018-07-11T20:49:13.476Z,4.77
2018-07-11T20:51:42.958Z,5.10
2018-07-11T20:54:11.516Z,4.60
2018-07-11T20:56:40.461Z,5.77
2018-07-11T20:59:20.189Z,5.40
2018-07-11T21:01:59.790Z,5.60
2018-07-11T21:04:40.120Z,6.23
2018-07-11T21:07:20.220Z,6.23
2018-07-11T21:09:58.531Z,6.23
2018-07-11T21:13:30.424Z,6.17
2018-07-11T21:18:12.631Z,5.40
2018-07-11T21:20:41.189Z,6.10
2018-07-11T21:23:10.712Z,6.00
2018-07-11T21:25:39.462Z,5.80
2018-07-11T21:28:08.145Z,6.53
2018-07-11T21:30:37.513Z,6.77
2018-07-11T21:33:06.320Z,7.37
2018-07-11T21:35:35.018Z,7.53
2018-07-11T21:38:04.577Z,6.97
2018-07-11T21:40:33.489Z,6.83
2018-07-11T21:43:02.034Z,6.83
2018-07-11T21:45:30.663Z,7.10
2018-07-11T21:47:59.135Z,6.53
2018-07-11T21:50:27.719Z,6.70
2018-07-11T21:52:56.349Z,5.60
2018-07-11T21:55:25.221Z,5.37
2018-07-11T21:57:53.876Z,5.00
2018-07-11T22:00:34.290Z,5.63
2018-07-11T22:03:03.387Z,5.30
2018-07-11T22:05:32.689Z,4.90
2018-07-11T22:08:01.263Z,4.93
2018-07-11T22:10:29.895Z,5.07
2018-07-11T22:12:58.453Z,4.80
2018-07-11T22:15:27.056Z,5.40
2018-07-11T22:18:06.806Z,5.87
2018-07-11T22:20:34.625Z,5.70
2018-07-11T22:23:03.559Z,5.57
2018-07-11T22:25:31.092Z,5.07
2018-07-11T22:27:58.425Z,5.63
2018-07-11T22:30:26.205Z,5.40
2018-07-11T22:32:55.114Z,4.90
2018-07-11T22:35:22.687Z,5.87
2018-07-11T22:37:50.003Z,5.47
2018-07-11T22:40:18.134Z,5.70
2018-07-11T22:42:45.436Z,5.80
2018-07-11T22:45:12.697Z,6.13
2018-07-11T22:47:39.986Z,5.90
2018-07-11T22:50:07.267Z,6.63
2018-07-11T22:52:34.579Z,6.23
2018-07-11T22:55:02.622Z,6.37
2018-07-11T22:57:30.991Z,6.50
2018-07-11T22:59:58.285Z,7.10
2018-07-11T23:02:25.612Z,6.83
2018-07-11T23:04:52.917Z,6.77
2018-07-11T23:07:20.246Z,6.37
2018-07-11T23:09:47.535Z,6.97
2018-07-11T23:12:14.864Z,7.20
2018-07-11T23:14:42.229Z,6.93
2018-07-11T23:17:09.799Z,7.03
2018-07-11T23:19:37.089Z,7.77
2018-07-11T23:22:04.488Z,7.27
2018-07-11T23:24:31.783Z,7.17
2018-07-11T23:26:59.092Z,7.20
2018-07-11T23:29:26.730Z,7.10
2018-07-11T23:31:54.790Z,6.80
2018-07-11T23:34:22.070Z,6.80
2018-07-11T23:36:49.418Z,6.90
2018-07-11T23:39:17.481Z,6.40
2018-07-11T23:41:44.806Z,6.53
2018-07-11T23:44:12.082Z,5.97
2018-07-11T23:46:39.384Z,6.63
2018-07-11T23:49:06.654Z,6.43
2018-07-11T23:51:33.951Z,6.60
2018-07-11T23:54:01.237Z,6.80
2018-07-11T23:56:28.549Z,6.70
2018-07-11T23:58:55.809Z,7.30
